»·PEaware :: N921VN KLGB-KMYF

N921VN :: KLGB-KMYF

FLIGHT INFORMATION

Flight Status: Arrived
Operator: Privately registered:
United States
More flights under this callsign
Pilot: Kevin M. (7)
Aircraft: BEECH AIRCRAFT BARON
(BE58)
More flights by this aircraft type
Origin: KLGB Long Beach
United States
Destination: KMYF Montgomery
United States
More flights between these airports :: More routes between these airports
Route: SLI V64 V363 DANAH V23 MZB
File this flight plan on PilotEdge
Remarks:
Altitude:
(Current/Filed)
5,000ft
Speed:
(Current/Filed)
150kts
Departed: 06-Nov-19 01:31 PM
Arrived: 06-Nov-19 02:44 PM
Distance/Time
Traveled:
79nm/1:13
Distance/Time
To Go:
Arrived

Flight Plot

Page will automatically refresh every two minutes.


Map Options




Map Legend


Flown Route
Filed Route
Departure Airport
Arrival Airport
Navaid (VOR, NDB)
Fix

Horizontal Profiles

Position Reports

Time Latitude Longitude Heading Altitude Ground
Speed
06-Nov-19 13:10 33.817881 -118.158235 268 49ft 0kts
06-Nov-19 13:12 33.817881 -118.158235 268 49ft 0kts
06-Nov-19 13:13 33.817881 -118.158235 268 49ft 0kts
06-Nov-19 13:13 33.817881 -118.158235 268 49ft 0kts
06-Nov-19 13:15 33.817881 -118.158235 268 49ft 0kts
06-Nov-19 13:15 33.817881 -118.158235 268 49ft 0kts
06-Nov-19 13:16 33.817881 -118.158235 268 49ft 0kts
06-Nov-19 13:18 33.817881 -118.158235 268 49ft 0kts
06-Nov-19 13:18 33.817881 -118.158235 268 49ft 0kts
06-Nov-19 13:19 33.817881 -118.158235 268 49ft 0kts
06-Nov-19 13:20 33.817881 -118.158235 268 49ft 0kts
06-Nov-19 13:21 33.817881 -118.158235 268 49ft 0kts
06-Nov-19 13:22 33.817881 -118.158235 268 49ft 0kts
06-Nov-19 13:23 33.817881 -118.158235 268 49ft 0kts
06-Nov-19 13:24 33.817881 -118.158237 270 49ft 0kts
06-Nov-19 13:25 33.818206 -118.157552 154 48ft 5kts
06-Nov-19 13:26 33.818228 -118.153755 130 44ft 15kts
06-Nov-19 13:27 33.813941 -118.148550 133 36ft 27kts
06-Nov-19 13:28 33.810002 -118.143557 132 31ft 23kts
06-Nov-19 13:29 33.806498 -118.139185 106 26ft 10kts
06-Nov-19 13:30 33.812393 -118.144812 314 109ft 113kts
06-Nov-19 13:31 33.815888 -118.173723 211 2185ft 111kts
06-Nov-19 13:32 33.792809 -118.158719 100 3704ft 148kts
06-Nov-19 13:33 33.786142 -118.107963 102 5007ft 165kts
06-Nov-19 13:34 33.775642 -118.046659 101 5113ft 199kts
06-Nov-19 13:35 33.768189 -117.979260 95 5092ft 204kts
06-Nov-19 13:36 33.758077 -117.910959 100 4976ft 206kts
06-Nov-19 13:37 33.749582 -117.843267 99 5112ft 201kts
06-Nov-19 13:38 33.735951 -117.777835 141 5064ft 203kts
06-Nov-19 13:39 33.683805 -117.754955 169 5138ft 193kts
06-Nov-19 13:40 33.630442 -117.734523 162 5041ft 192kts
06-Nov-19 13:41 33.580926 -117.706034 150 5041ft 200kts
06-Nov-19 13:42 33.536005 -117.665870 140 5041ft 202kts
06-Nov-19 13:43 33.483792 -117.644827 167 5041ft 198kts
06-Nov-19 13:44 33.432874 -117.619092 148 5041ft 201kts
06-Nov-19 13:45 33.388787 -117.577152 139 5041ft 202kts
06-Nov-19 13:46 33.347581 -117.530867 138 5041ft 202kts
06-Nov-19 13:47 33.302935 -117.489809 145 5041ft 201kts
06-Nov-19 13:48 33.262322 -117.443240 137 5041ft 202kts
06-Nov-19 13:49 33.226231 -117.391243 121 5042ft 204kts
06-Nov-19 13:50 33.197892 -117.332031 121 5040ft 204kts
06-Nov-19 13:51 33.169648 -117.272933 121 5040ft 204kts
06-Nov-19 13:52 33.141352 -117.213702 121 5040ft 204kts
06-Nov-19 13:53 33.113123 -117.154596 121 5040ft 204kts
06-Nov-19 13:54 33.084871 -117.095417 121 5040ft 204kts
06-Nov-19 13:55 33.053426 -117.038901 131 5040ft 203kts
06-Nov-19 13:56 33.017399 -116.986467 131 5040ft 203kts
06-Nov-19 13:57 32.981283 -116.933902 131 5040ft 203kts
06-Nov-19 13:58 32.945380 -116.881639 131 5040ft 203kts
06-Nov-19 13:59 32.909310 -116.829125 130 5040ft 203kts
06-Nov-19 14:00 32.873404 -116.776838 130 5041ft 203kts
06-Nov-19 14:01 32.837578 -116.724664 130 5041ft 203kts
06-Nov-19 14:02 32.793911 -116.687925 194 4871ft 202kts
06-Nov-19 14:03 32.754566 -116.728294 225 5023ft 190kts
06-Nov-19 14:04 32.728456 -116.779697 262 4989ft 192kts
06-Nov-19 14:05 32.721537 -116.841994 261 5020ft 189kts
06-Nov-19 14:06 32.722691 -116.904820 292 4704ft 194kts
06-Nov-19 14:07 32.746964 -116.964592 296 3631ft 197kts
06-Nov-19 14:08 32.768643 -117.020416 287 2399ft 189kts
06-Nov-19 14:09 32.790708 -117.074666 287 1447ft 175kts
06-Nov-19 14:10 32.805636 -117.113486 294 676ft 122kts
06-Nov-19 14:11 32.818759 -117.153827 280 2648ft 127kts
06-Nov-19 14:12 32.830581 -117.203733 286 2853ft 195kts
06-Nov-19 14:13 32.856232 -117.254827 320 3040ft 193kts
06-Nov-19 14:14 32.904105 -117.279313 342 3084ft 195kts
06-Nov-19 14:15 32.956999 -117.299369 339 3109ft 201kts
06-Nov-19 14:16 33.009941 -117.321114 339 3108ft 202kts
06-Nov-19 14:17 33.053284 -117.354663 267 3104ft 193kts
06-Nov-19 14:18 33.010195 -117.363314 158 3108ft 198kts
06-Nov-19 14:19 32.962147 -117.332502 116 3112ft 202kts
06-Nov-19 14:20 33.000697 -117.318324 340 3058ft 192kts
06-Nov-19 14:21 33.050378 -117.343840 289 2830ft 200kts
06-Nov-19 14:22 33.017718 -117.353519 130 2942ft 205kts
06-Nov-19 14:23 32.997533 -117.294452 111 3763ft 183kts
06-Nov-19 14:24 32.980194 -117.238206 111 4755ft 179kts
06-Nov-19 14:25 32.961615 -117.179152 111 5029ft 201kts
06-Nov-19 14:26 32.941601 -117.115914 111 5027ft 204kts
06-Nov-19 14:27 32.921515 -117.052427 111 5027ft 205kts
06-Nov-19 14:28 32.901395 -116.988796 111 5026ft 205kts
06-Nov-19 14:29 32.881298 -116.925201 111 5027ft 205kts
06-Nov-19 14:30 32.861171 -116.861473 111 5027ft 205kts
06-Nov-19 14:31 32.822373 -116.816267 150 5027ft 201kts
06-Nov-19 14:32 32.774645 -116.781721 150 5027ft 201kts
06-Nov-19 14:33 32.724625 -116.764720 199 5030ft 194kts
06-Nov-19 14:34 32.694852 -116.799363 305 5018ft 148kts
06-Nov-19 14:35 32.702419 -116.836497 261 5021ft 110kts
06-Nov-19 14:36 32.710593 -116.872939 285 4720ft 122kts
06-Nov-19 14:37 32.726733 -116.912862 290 4727ft 155kts
06-Nov-19 14:38 32.747702 -116.965927 294 3559ft 180kts
06-Nov-19 14:39 32.766377 -117.012843 294 2453ft 115kts
06-Nov-19 14:40 32.779497 -117.046997 285 2045ft 131kts
06-Nov-19 14:41 32.795600 -117.087884 300 1236ft 144kts
06-Nov-19 14:42 32.809539 -117.122289 295 703ft 109kts
06-Nov-19 14:43 32.817551 -117.143243 294 417ft 39kts
06-Nov-19 14:44 32.815684 -117.145876 207 415ft 9kts
06-Nov-19 14:45 32.814171 -117.145540 165 414ft 3kts

Navigation Log

Ident Type
Flight plan parsing failed, navigation log unavailable